sensor_id;sensor_type;location;lat;lon;timestamp;P1;durP1;ratioP1;P2;durP2;ratioP2
13090;SDS011;6611;52.604;13.438;2022-09-27T00:00:14;2.07;;;0.83;;
13090;SDS011;6611;52.604;13.438;2022-09-27T00:05:17;0.90;;;0.80;;
13090;SDS011;6611;52.604;13.438;2022-09-27T00:10:19;1.33;;;0.90;;
13090;SDS011;6611;52.604;13.438;2022-09-27T00:15:21;1.07;;;0.80;;
13090;SDS011;6611;52.604;13.438;2022-09-27T00:20:24;1.90;;;1.00;;
13090;SDS011;6611;52.604;13.438;2022-09-27T00:25:25;1.37;;;1.10;;
13090;SDS011;6611;52.604;13.438;2022-09-27T00:30:27;1.53;;;0.80;;
13090;SDS011;6611;52.604;13.438;2022-09-27T00:35:30;0.80;;;0.63;;
13090;SDS011;6611;52.604;13.438;2022-09-27T00:40:32;0.80;;;0.80;;
13090;SDS011;6611;52.604;13.438;2022-09-27T00:45:33;0.80;;;0.80;;
13090;SDS011;6611;52.604;13.438;2022-09-27T00:50:36;1.33;;;0.90;;
13090;SDS011;6611;52.604;13.438;2022-09-27T00:55:41;1.00;;;0.80;;
13090;SDS011;6611;52.604;13.438;2022-09-27T01:00:46;1.33;;;1.07;;
13090;SDS011;6611;52.604;13.438;2022-09-27T01:05:52;1.40;;;1.30;;
13090;SDS011;6611;52.604;13.438;2022-09-27T01:10:59;0.90;;;0.80;;
13090;SDS011;6611;52.604;13.438;2022-09-27T01:16:15;1.77;;;1.10;;
13090;SDS011;6611;52.604;13.438;2022-09-27T01:27:02;2.10;;;1.00;;
13090;SDS011;6611;52.604;13.438;2022-09-27T01:32:20;2.30;;;0.90;;
13090;SDS011;6611;52.604;13.438;2022-09-27T01:37:29;1.10;;;1.00;;
13090;SDS011;6611;52.604;13.438;2022-09-27T01:42:38;1.93;;;0.90;;
13090;SDS011;6611;52.604;13.438;2022-09-27T01:47:49;1.73;;;0.70;;
13090;SDS011;6611;52.604;13.438;2022-09-27T01:52:54;1.30;;;0.70;;
13090;SDS011;6611;52.604;13.438;2022-09-27T01:58:02;1.47;;;1.23;;
13090;SDS011;6611;52.604;13.438;2022-09-27T02:03:12;2.77;;;2.27;;
13090;SDS011;6611;52.604;13.438;2022-09-27T02:08:16;3.60;;;3.00;;
13090;SDS011;6611;52.604;13.438;2022-09-27T02:13:23;4.80;;;2.77;;
13090;SDS011;6611;52.604;13.438;2022-09-27T02:18:32;1.63;;;1.40;;
13090;SDS011;6611;52.604;13.438;2022-09-27T02:23:38;1.60;;;1.10;;
13090;SDS011;6611;52.604;13.438;2022-09-27T02:28:44;1.47;;;0.90;;
13090;SDS011;6611;52.604;13.438;2022-09-27T02:33:51;0.97;;;0.73;;
13090;SDS011;6611;52.604;13.438;2022-09-27T02:38:56;1.17;;;0.93;;
13090;SDS011;6611;52.604;13.438;2022-09-27T02:44:00;0.80;;;0.70;;
13090;SDS011;6611;52.604;13.438;2022-09-27T02:49:08;2.13;;;0.70;;
13090;SDS011;6611;52.604;13.438;2022-09-27T02:54:23;1.40;;;0.80;;
13090;SDS011;6611;52.604;13.438;2022-09-27T02:59:34;1.00;;;0.80;;
13090;SDS011;6611;52.604;13.438;2022-09-27T03:04:46;0.50;;;0.50;;
13090;SDS011;6611;52.604;13.438;2022-09-27T03:09:53;0.60;;;0.57;;
13090;SDS011;6611;52.604;13.438;2022-09-27T03:14:56;1.00;;;0.70;;
13090;SDS011;6611;52.604;13.438;2022-09-27T03:20:00;1.07;;;0.80;;
13090;SDS011;6611;52.604;13.438;2022-09-27T03:25:02;1.40;;;0.83;;
13090;SDS011;6611;52.604;13.438;2022-09-27T03:30:05;0.83;;;0.80;;
13090;SDS011;6611;52.604;13.438;2022-09-27T03:35:08;1.20;;;0.90;;
13090;SDS011;6611;52.604;13.438;2022-09-27T03:40:10;1.27;;;0.87;;
13090;SDS011;6611;52.604;13.438;2022-09-27T03:45:12;1.20;;;1.00;;
13090;SDS011;6611;52.604;13.438;2022-09-27T03:50:15;3.70;;;1.00;;
13090;SDS011;6611;52.604;13.438;2022-09-27T03:55:16;1.23;;;0.93;;
13090;SDS011;6611;52.604;13.438;2022-09-27T04:00:18;0.97;;;0.87;;
13090;SDS011;6611;52.604;13.438;2022-09-27T04:05:21;1.10;;;0.87;;
13090;SDS011;6611;52.604;13.438;2022-09-27T04:10:23;2.07;;;0.90;;
13090;SDS011;6611;52.604;13.438;2022-09-27T04:15:25;0.57;;;0.57;;
13090;SDS011;6611;52.604;13.438;2022-09-27T04:20:28;1.07;;;0.90;;
13090;SDS011;6611;52.604;13.438;2022-09-27T04:25:30;1.53;;;1.20;;
13090;SDS011;6611;52.604;13.438;2022-09-27T04:30:32;1.27;;;0.90;;
13090;SDS011;6611;52.604;13.438;2022-09-27T04:35:35;1.17;;;1.07;;
13090;SDS011;6611;52.604;13.438;2022-09-27T04:40:54;1.07;;;0.93;;
13090;SDS011;6611;52.604;13.438;2022-09-27T04:45:56;1.30;;;0.90;;
13090;SDS011;6611;52.604;13.438;2022-09-27T04:50:59;0.80;;;0.70;;
13090;SDS011;6611;52.604;13.438;2022-09-27T04:56:02;1.60;;;1.10;;
13090;SDS011;6611;52.604;13.438;2022-09-27T05:01:05;1.00;;;0.90;;
13090;SDS011;6611;52.604;13.438;2022-09-27T05:06:09;1.67;;;0.83;;
13090;SDS011;6611;52.604;13.438;2022-09-27T05:11:11;2.43;;;1.07;;
13090;SDS011;6611;52.604;13.438;2022-09-27T05:16:12;1.77;;;1.10;;
13090;SDS011;6611;52.604;13.438;2022-09-27T05:21:15;1.57;;;0.90;;
13090;SDS011;6611;52.604;13.438;2022-09-27T05:26:17;3.00;;;0.87;;
13090;SDS011;6611;52.604;13.438;2022-09-27T05:31:18;1.43;;;1.10;;
13090;SDS011;6611;52.604;13.438;2022-09-27T05:36:21;1.13;;;1.03;;
13090;SDS011;6611;52.604;13.438;2022-09-27T05:41:23;3.13;;;1.00;;
13090;SDS011;6611;52.604;13.438;2022-09-27T05:46:25;1.10;;;0.80;;
13090;SDS011;6611;52.604;13.438;2022-09-27T05:51:28;1.57;;;1.00;;
13090;SDS011;6611;52.604;13.438;2022-09-27T05:56:29;1.20;;;1.00;;
13090;SDS011;6611;52.604;13.438;2022-09-27T06:01:31;1.30;;;1.20;;
13090;SDS011;6611;52.604;13.438;2022-09-27T06:06:36;1.30;;;1.10;;
13090;SDS011;6611;52.604;13.438;2022-09-27T06:11:37;1.60;;;1.17;;
13090;SDS011;6611;52.604;13.438;2022-09-27T06:16:39;1.63;;;1.20;;
13090;SDS011;6611;52.604;13.438;2022-09-27T06:21:42;1.20;;;0.97;;
13090;SDS011;6611;52.604;13.438;2022-09-27T06:26:44;1.90;;;1.10;;
13090;SDS011;6611;52.604;13.438;2022-09-27T06:31:45;1.60;;;1.07;;
13090;SDS011;6611;52.604;13.438;2022-09-27T06:36:49;1.43;;;1.20;;
13090;SDS011;6611;52.604;13.438;2022-09-27T06:41:52;2.30;;;1.30;;
13090;SDS011;6611;52.604;13.438;2022-09-27T06:46:56;1.63;;;1.13;;
13090;SDS011;6611;52.604;13.438;2022-09-27T06:52:00;1.63;;;1.30;;
13090;SDS011;6611;52.604;13.438;2022-09-27T06:57:01;3.17;;;1.47;;
13090;SDS011;6611;52.604;13.438;2022-09-27T07:02:03;1.33;;;1.07;;
13090;SDS011;6611;52.604;13.438;2022-09-27T07:07:06;2.10;;;1.13;;
13090;SDS011;6611;52.604;13.438;2022-09-27T07:12:08;1.47;;;1.10;;
13090;SDS011;6611;52.604;13.438;2022-09-27T07:17:12;1.97;;;0.97;;
13090;SDS011;6611;52.604;13.438;2022-09-27T07:22:15;2.67;;;1.67;;
13090;SDS011;6611;52.604;13.438;2022-09-27T07:27:16;2.90;;;2.40;;
13090;SDS011;6611;52.604;13.438;2022-09-27T07:32:18;2.30;;;2.10;;
13090;SDS011;6611;52.604;13.438;2022-09-27T07:37:22;1.80;;;1.40;;
13090;SDS011;6611;52.604;13.438;2022-09-27T07:42:23;1.80;;;1.20;;
13090;SDS011;6611;52.604;13.438;2022-09-27T07:47:25;2.03;;;1.37;;
13090;SDS011;6611;52.604;13.438;2022-09-27T07:52:28;1.73;;;1.30;;
13090;SDS011;6611;52.604;13.438;2022-09-27T07:57:30;2.17;;;1.43;;
13090;SDS011;6611;52.604;13.438;2022-09-27T08:02:31;1.50;;;1.30;;
13090;SDS011;6611;52.604;13.438;2022-09-27T08:07:34;1.50;;;1.30;;
13090;SDS011;6611;52.604;13.438;2022-09-27T08:12:36;1.63;;;1.27;;
13090;SDS011;6611;52.604;13.438;2022-09-27T08:17:37;2.13;;;1.33;;
13090;SDS011;6611;52.604;13.438;2022-09-27T08:22:41;1.20;;;1.10;;
13090;SDS011;6611;52.604;13.438;2022-09-27T08:27:43;1.50;;;1.03;;
13090;SDS011;6611;52.604;13.438;2022-09-27T08:32:44;1.30;;;1.17;;
13090;SDS011;6611;52.604;13.438;2022-09-27T08:37:52;1.43;;;1.30;;
13090;SDS011;6611;52.604;13.438;2022-09-27T08:42:58;1.30;;;1.00;;
13090;SDS011;6611;52.604;13.438;2022-09-27T08:48:03;1.30;;;1.20;;
13090;SDS011;6611;52.604;13.438;2022-09-27T08:53:21;1.10;;;1.00;;
13090;SDS011;6611;52.604;13.438;2022-09-27T08:58:26;1.57;;;1.40;;
13090;SDS011;6611;52.604;13.438;2022-09-27T09:03:30;1.50;;;1.20;;
13090;SDS011;6611;52.604;13.438;2022-09-27T09:08:38;1.83;;;1.20;;
13090;SDS011;6611;52.604;13.438;2022-09-27T09:19:29;1.50;;;1.20;;
13090;SDS011;6611;52.604;13.438;2022-09-27T09:24:46;1.50;;;1.40;;
13090;SDS011;6611;52.604;13.438;2022-09-27T09:30:00;2.97;;;1.30;;
13090;SDS011;6611;52.604;13.438;2022-09-27T09:35:19;1.40;;;1.30;;
13090;SDS011;6611;52.604;13.438;2022-09-27T09:40:25;2.47;;;1.50;;
13090;SDS011;6611;52.604;13.438;2022-09-27T09:45:32;1.77;;;1.40;;
13090;SDS011;6611;52.604;13.438;2022-09-27T09:50:41;3.27;;;1.60;;
13090;SDS011;6611;52.604;13.438;2022-09-27T09:55:49;1.67;;;1.57;;
13090;SDS011;6611;52.604;13.438;2022-09-27T10:00:57;1.73;;;1.63;;
13090;SDS011;6611;52.604;13.438;2022-09-27T10:06:09;2.43;;;1.60;;
13090;SDS011;6611;52.604;13.438;2022-09-27T10:11:16;1.70;;;1.60;;
13090;SDS011;6611;52.604;13.438;2022-09-27T10:16:21;1.73;;;1.50;;
13090;SDS011;6611;52.604;13.438;2022-09-27T10:21:24;2.40;;;1.47;;
13090;SDS011;6611;52.604;13.438;2022-09-27T10:26:30;1.67;;;1.40;;
13090;SDS011;6611;52.604;13.438;2022-09-27T10:31:34;2.30;;;1.30;;
13090;SDS011;6611;52.604;13.438;2022-09-27T10:36:37;1.60;;;1.50;;
13090;SDS011;6611;52.604;13.438;2022-09-27T10:41:40;2.47;;;1.40;;
13090;SDS011;6611;52.604;13.438;2022-09-27T10:46:42;4.03;;;1.63;;
13090;SDS011;6611;52.604;13.438;2022-09-27T10:51:45;1.83;;;1.63;;
13090;SDS011;6611;52.604;13.438;2022-09-27T10:56:55;2.23;;;1.70;;
13090;SDS011;6611;52.604;13.438;2022-09-27T11:01:59;2.97;;;1.30;;
13090;SDS011;6611;52.604;13.438;2022-09-27T11:07:06;2.83;;;1.37;;
13090;SDS011;6611;52.604;13.438;2022-09-27T11:12:16;2.50;;;1.30;;
13090;SDS011;6611;52.604;13.438;2022-09-27T11:17:21;2.50;;;1.50;;
13090;SDS011;6611;52.604;13.438;2022-09-27T11:22:44;2.07;;;1.60;;
13090;SDS011;6611;52.604;13.438;2022-09-27T11:28:11;2.40;;;1.47;;
13090;SDS011;6611;52.604;13.438;2022-09-27T11:33:28;2.67;;;1.53;;
13090;SDS011;6611;52.604;13.438;2022-09-27T11:38:45;2.07;;;1.73;;
13090;SDS011;6611;52.604;13.438;2022-09-27T11:43:59;1.53;;;1.37;;
13090;SDS011;6611;52.604;13.438;2022-09-27T11:49:25;1.10;;;1.00;;
13090;SDS011;6611;52.604;13.438;2022-09-27T11:54:53;1.77;;;1.10;;
13090;SDS011;6611;52.604;13.438;2022-09-27T12:00:16;2.47;;;1.20;;
13090;SDS011;6611;52.604;13.438;2022-09-27T12:05:27;1.20;;;0.90;;
13090;SDS011;6611;52.604;13.438;2022-09-27T12:10:36;0.40;;;0.40;;
13090;SDS011;6611;52.604;13.438;2022-09-27T12:15:41;0.40;;;0.40;;
13090;SDS011;6611;52.604;13.438;2022-09-27T12:20:47;0.50;;;0.43;;
13090;SDS011;6611;52.604;13.438;2022-09-27T12:25:50;1.57;;;0.40;;
13090;SDS011;6611;52.604;13.438;2022-09-27T12:31:01;0.43;;;0.33;;
13090;SDS011;6611;52.604;13.438;2022-09-27T12:36:08;0.40;;;0.40;;
13090;SDS011;6611;52.604;13.438;2022-09-27T12:41:16;0.60;;;0.50;;
13090;SDS011;6611;52.604;13.438;2022-09-27T12:46:26;0.80;;;0.57;;
13090;SDS011;6611;52.604;13.438;2022-09-27T12:51:37;0.60;;;0.50;;
13090;SDS011;6611;52.604;13.438;2022-09-27T12:56:45;0.90;;;0.60;;
13090;SDS011;6611;52.604;13.438;2022-09-27T13:01:57;0.97;;;0.60;;
13090;SDS011;6611;52.604;13.438;2022-09-27T13:07:15;0.60;;;0.60;;
13090;SDS011;6611;52.604;13.438;2022-09-27T13:12:26;1.00;;;0.73;;
13090;SDS011;6611;52.604;13.438;2022-09-27T13:17:34;0.73;;;0.60;;
13090;SDS011;6611;52.604;13.438;2022-09-27T13:22:52;0.60;;;0.60;;
13090;SDS011;6611;52.604;13.438;2022-09-27T13:27:54;0.83;;;0.60;;
13090;SDS011;6611;52.604;13.438;2022-09-27T13:38:32;0.63;;;0.50;;
13090;SDS011;6611;52.604;13.438;2022-09-27T13:43:38;0.40;;;0.40;;
13090;SDS011;6611;52.604;13.438;2022-09-27T13:48:51;0.67;;;0.57;;
13090;SDS011;6611;52.604;13.438;2022-09-27T13:53:56;1.30;;;0.60;;
13090;SDS011;6611;52.604;13.438;2022-09-27T13:59:00;0.60;;;0.60;;
13090;SDS011;6611;52.604;13.438;2022-09-27T14:04:12;0.60;;;0.50;;
13090;SDS011;6611;52.604;13.438;2022-09-27T14:09:17;1.00;;;0.50;;
13090;SDS011;6611;52.604;13.438;2022-09-27T14:14:21;0.87;;;0.70;;
13090;SDS011;6611;52.604;13.438;2022-09-27T14:19:26;0.70;;;0.57;;
13090;SDS011;6611;52.604;13.438;2022-09-27T14:24:29;1.77;;;1.00;;
13090;SDS011;6611;52.604;13.438;2022-09-27T14:29:33;0.77;;;0.77;;
13090;SDS011;6611;52.604;13.438;2022-09-27T14:34:42;0.80;;;0.80;;
13090;SDS011;6611;52.604;13.438;2022-09-27T14:39:44;1.37;;;0.70;;
13090;SDS011;6611;52.604;13.438;2022-09-27T14:44:54;0.53;;;0.50;;
13090;SDS011;6611;52.604;13.438;2022-09-27T14:50:11;0.40;;;0.40;;
13090;SDS011;6611;52.604;13.438;2022-09-27T14:55:18;0.60;;;0.50;;
13090;SDS011;6611;52.604;13.438;2022-09-27T15:00:22;0.70;;;0.47;;
13090;SDS011;6611;52.604;13.438;2022-09-27T15:05:28;1.23;;;0.93;;
13090;SDS011;6611;52.604;13.438;2022-09-27T15:10:33;1.10;;;0.80;;
13090;SDS011;6611;52.604;13.438;2022-09-27T15:15:36;1.50;;;1.00;;
13090;SDS011;6611;52.604;13.438;2022-09-27T15:20:43;1.20;;;1.07;;
13090;SDS011;6611;52.604;13.438;2022-09-27T15:25:57;1.03;;;0.90;;
13090;SDS011;6611;52.604;13.438;2022-09-27T15:31:04;1.17;;;1.00;;
13090;SDS011;6611;52.604;13.438;2022-09-27T15:36:09;3.30;;;1.30;;
13090;SDS011;6611;52.604;13.438;2022-09-27T15:41:14;1.50;;;1.20;;
13090;SDS011;6611;52.604;13.438;2022-09-27T15:46:28;1.83;;;1.20;;
13090;SDS011;6611;52.604;13.438;2022-09-27T15:51:39;1.90;;;1.30;;
13090;SDS011;6611;52.604;13.438;2022-09-27T15:56:42;1.43;;;1.30;;
13090;SDS011;6611;52.604;13.438;2022-09-27T16:01:43;2.47;;;1.43;;
13090;SDS011;6611;52.604;13.438;2022-09-27T16:06:46;1.70;;;1.43;;
13090;SDS011;6611;52.604;13.438;2022-09-27T16:11:48;1.90;;;1.40;;
13090;SDS011;6611;52.604;13.438;2022-09-27T16:16:51;1.97;;;1.23;;
13090;SDS011;6611;52.604;13.438;2022-09-27T16:21:55;1.87;;;1.20;;
13090;SDS011;6611;52.604;13.438;2022-09-27T16:26:57;0.80;;;0.80;;
13090;SDS011;6611;52.604;13.438;2022-09-27T16:31:59;2.93;;;0.70;;
13090;SDS011;6611;52.604;13.438;2022-09-27T16:37:02;0.67;;;0.60;;
13090;SDS011;6611;52.604;13.438;2022-09-27T16:42:04;0.60;;;0.60;;
13090;SDS011;6611;52.604;13.438;2022-09-27T16:47:07;0.83;;;0.80;;
13090;SDS011;6611;52.604;13.438;2022-09-27T16:52:10;1.23;;;0.90;;
13090;SDS011;6611;52.604;13.438;2022-09-27T16:57:12;1.37;;;0.77;;
13090;SDS011;6611;52.604;13.438;2022-09-27T17:02:13;1.20;;;0.90;;
13090;SDS011;6611;52.604;13.438;2022-09-27T17:07:16;0.87;;;0.77;;
13090;SDS011;6611;52.604;13.438;2022-09-27T17:12:18;1.20;;;0.90;;
13090;SDS011;6611;52.604;13.438;2022-09-27T17:17:19;0.90;;;0.70;;
13090;SDS011;6611;52.604;13.438;2022-09-27T17:22:22;0.97;;;0.80;;
13090;SDS011;6611;52.604;13.438;2022-09-27T17:27:26;1.10;;;1.00;;
13090;SDS011;6611;52.604;13.438;2022-09-27T17:32:28;1.03;;;0.93;;
13090;SDS011;6611;52.604;13.438;2022-09-27T17:37:31;1.10;;;0.93;;
13090;SDS011;6611;52.604;13.438;2022-09-27T17:42:32;2.57;;;1.30;;
13090;SDS011;6611;52.604;13.438;2022-09-27T17:47:34;2.33;;;1.70;;
13090;SDS011;6611;52.604;13.438;2022-09-27T17:52:55;2.20;;;1.93;;
13090;SDS011;6611;52.604;13.438;2022-09-27T17:57:57;2.67;;;1.47;;
13090;SDS011;6611;52.604;13.438;2022-09-27T18:03:00;2.47;;;2.00;;
13090;SDS011;6611;52.604;13.438;2022-09-27T18:08:03;5.07;;;3.13;;
13090;SDS011;6611;52.604;13.438;2022-09-27T18:13:05;3.17;;;2.43;;
13090;SDS011;6611;52.604;13.438;2022-09-27T18:18:06;2.77;;;1.53;;
13090;SDS011;6611;52.604;13.438;2022-09-27T18:23:09;1.53;;;1.10;;
13090;SDS011;6611;52.604;13.438;2022-09-27T18:28:11;1.57;;;1.10;;
13090;SDS011;6611;52.604;13.438;2022-09-27T18:33:13;1.33;;;0.90;;
13090;SDS011;6611;52.604;13.438;2022-09-27T18:38:16;1.67;;;1.10;;
13090;SDS011;6611;52.604;13.438;2022-09-27T18:43:17;2.23;;;1.37;;
13090;SDS011;6611;52.604;13.438;2022-09-27T18:48:19;1.97;;;1.20;;
13090;SDS011;6611;52.604;13.438;2022-09-27T18:53:22;1.43;;;1.20;;
13090;SDS011;6611;52.604;13.438;2022-09-27T18:58:23;1.30;;;1.00;;
13090;SDS011;6611;52.604;13.438;2022-09-27T19:03:25;2.50;;;0.97;;
13090;SDS011;6611;52.604;13.438;2022-09-27T19:08:28;1.10;;;0.70;;
13090;SDS011;6611;52.604;13.438;2022-09-27T19:13:30;1.57;;;0.90;;
13090;SDS011;6611;52.604;13.438;2022-09-27T19:18:32;1.57;;;0.90;;
13090;SDS011;6611;52.604;13.438;2022-09-27T19:23:35;1.10;;;1.00;;
13090;SDS011;6611;52.604;13.438;2022-09-27T19:28:38;1.70;;;1.17;;
13090;SDS011;6611;52.604;13.438;2022-09-27T19:33:40;1.30;;;1.10;;
13090;SDS011;6611;52.604;13.438;2022-09-27T19:38:43;1.37;;;1.20;;
13090;SDS011;6611;52.604;13.438;2022-09-27T19:43:48;1.77;;;1.23;;
13090;SDS011;6611;52.604;13.438;2022-09-27T19:48:51;2.10;;;1.67;;
13090;SDS011;6611;52.604;13.438;2022-09-27T19:53:55;1.30;;;1.20;;
13090;SDS011;6611;52.604;13.438;2022-09-27T19:58:57;1.97;;;0.80;;
13090;SDS011;6611;52.604;13.438;2022-09-27T20:03:58;1.00;;;0.90;;
13090;SDS011;6611;52.604;13.438;2022-09-27T20:09:01;1.77;;;0.80;;
13090;SDS011;6611;52.604;13.438;2022-09-27T20:14:03;1.50;;;0.90;;
13090;SDS011;6611;52.604;13.438;2022-09-27T20:19:04;1.27;;;1.00;;
13090;SDS011;6611;52.604;13.438;2022-09-27T20:24:08;1.03;;;0.90;;
13090;SDS011;6611;52.604;13.438;2022-09-27T20:29:09;0.83;;;0.70;;
13090;SDS011;6611;52.604;13.438;2022-09-27T20:34:11;1.63;;;1.20;;
13090;SDS011;6611;52.604;13.438;2022-09-27T20:39:15;1.23;;;0.87;;
13090;SDS011;6611;52.604;13.438;2022-09-27T20:44:18;1.83;;;0.80;;
13090;SDS011;6611;52.604;13.438;2022-09-27T20:49:20;1.03;;;0.73;;
13090;SDS011;6611;52.604;13.438;2022-09-27T20:54:23;1.30;;;0.87;;
13090;SDS011;6611;52.604;13.438;2022-09-27T20:59:24;0.93;;;0.70;;
13090;SDS011;6611;52.604;13.438;2022-09-27T21:04:26;1.03;;;0.70;;
13090;SDS011;6611;52.604;13.438;2022-09-27T21:09:30;1.10;;;0.70;;
13090;SDS011;6611;52.604;13.438;2022-09-27T21:14:33;0.97;;;0.53;;
13090;SDS011;6611;52.604;13.438;2022-09-27T21:19:34;0.70;;;0.50;;
13090;SDS011;6611;52.604;13.438;2022-09-27T21:24:37;0.60;;;0.50;;
13090;SDS011;6611;52.604;13.438;2022-09-27T21:29:39;0.40;;;0.40;;
13090;SDS011;6611;52.604;13.438;2022-09-27T21:34:40;0.60;;;0.60;;
13090;SDS011;6611;52.604;13.438;2022-09-27T21:39:43;0.63;;;0.60;;
13090;SDS011;6611;52.604;13.438;2022-09-27T21:44:45;1.27;;;0.90;;
13090;SDS011;6611;52.604;13.438;2022-09-27T21:49:47;1.73;;;0.70;;
13090;SDS011;6611;52.604;13.438;2022-09-27T21:54:49;0.60;;;0.60;;
13090;SDS011;6611;52.604;13.438;2022-09-27T21:59:51;1.03;;;0.60;;
13090;SDS011;6611;52.604;13.438;2022-09-27T22:04:53;0.60;;;0.60;;
13090;SDS011;6611;52.604;13.438;2022-09-27T22:09:55;0.97;;;0.60;;
13090;SDS011;6611;52.604;13.438;2022-09-27T22:14:57;0.50;;;0.50;;
13090;SDS011;6611;52.604;13.438;2022-09-27T22:19:58;0.60;;;0.60;;
13090;SDS011;6611;52.604;13.438;2022-09-27T22:25:01;0.60;;;0.60;;
13090;SDS011;6611;52.604;13.438;2022-09-27T22:30:03;0.50;;;0.50;;
13090;SDS011;6611;52.604;13.438;2022-09-27T22:35:06;1.33;;;0.60;;
13090;SDS011;6611;52.604;13.438;2022-09-27T22:40:10;1.17;;;0.73;;
13090;SDS011;6611;52.604;13.438;2022-09-27T22:45:11;0.60;;;0.40;;
13090;SDS011;6611;52.604;13.438;2022-09-27T22:50:13;2.60;;;0.50;;
13090;SDS011;6611;52.604;13.438;2022-09-27T22:55:16;0.60;;;0.50;;
13090;SDS011;6611;52.604;13.438;2022-09-27T23:00:17;0.50;;;0.50;;
13090;SDS011;6611;52.604;13.438;2022-09-27T23:05:19;0.50;;;0.50;;
13090;SDS011;6611;52.604;13.438;2022-09-27T23:10:22;0.70;;;0.70;;
13090;SDS011;6611;52.604;13.438;2022-09-27T23:15:23;0.90;;;0.67;;
13090;SDS011;6611;52.604;13.438;2022-09-27T23:20:25;0.70;;;0.50;;
13090;SDS011;6611;52.604;13.438;2022-09-27T23:25:28;0.50;;;0.50;;
13090;SDS011;6611;52.604;13.438;2022-09-27T23:30:30;2.60;;;0.67;;
13090;SDS011;6611;52.604;13.438;2022-09-27T23:35:31;0.87;;;0.60;;
13090;SDS011;6611;52.604;13.438;2022-09-27T23:40:34;0.60;;;0.60;;
13090;SDS011;6611;52.604;13.438;2022-09-27T23:45:36;0.70;;;0.60;;
13090;SDS011;6611;52.604;13.438;2022-09-27T23:50:38;1.17;;;0.60;;
13090;SDS011;6611;52.604;13.438;2022-09-27T23:55:44;1.03;;;0.77;;
